createdAt,value
2023-01-26T00:00:11.222Z,102472.63
2023-01-26T00:02:39.729Z,102467.16
2023-01-26T00:05:09.891Z,102469.94
2023-01-26T00:07:39.521Z,102462.19
2023-01-26T00:10:09.084Z,102460.41
2023-01-26T00:12:37.674Z,102464.06
2023-01-26T00:15:09.362Z,102459.19
2023-01-26T00:17:38.278Z,102458.03
2023-01-26T00:20:07.147Z,102466.69
2023-01-26T00:22:35.090Z,102476.47
2023-01-26T00:25:03.727Z,102467.41
2023-01-26T00:27:33.718Z,102461.50
2023-01-26T00:30:01.908Z,102466.09
2023-01-26T00:32:31.267Z,102453.81
2023-01-26T00:34:59.713Z,102443.41
2023-01-26T00:37:28.787Z,102452.59
2023-01-26T00:39:57.158Z,102450.63
2023-01-26T00:42:25.948Z,102444.72
2023-01-26T00:44:53.892Z,102435.72
2023-01-26T00:47:21.770Z,102438.03
2023-01-26T00:49:52.762Z,102429.84
2023-01-26T00:52:20.989Z,102437.25
2023-01-26T00:54:49.247Z,102426.84
2023-01-26T00:57:17.215Z,102428.38
2023-01-26T00:59:45.198Z,102421.00
2023-01-26T01:02:13.302Z,102431.59
2023-01-26T01:04:41.235Z,102423.00
2023-01-26T01:07:12.080Z,102438.06
2023-01-26T01:09:40.052Z,102432.66
2023-01-26T01:12:08.383Z,102427.34
2023-01-26T01:14:36.603Z,102425.63
2023-01-26T01:17:04.651Z,102426.06
2023-01-26T01:19:32.604Z,102428.47
2023-01-26T01:22:00.689Z,102430.31
2023-01-26T01:24:30.093Z,102430.44
2023-01-26T01:26:57.969Z,102428.16
2023-01-26T01:29:26.208Z,102443.56
2023-01-26T01:31:54.830Z,102441.88
2023-01-26T01:34:27.044Z,102443.59
2023-01-26T01:36:56.144Z,102432.84
2023-01-26T01:39:28.233Z,102435.59
2023-01-26T01:42:01.717Z,102450.25
2023-01-26T01:44:30.469Z,102454.19
2023-01-26T01:47:03.283Z,102459.63
2023-01-26T01:49:37.964Z,102453.75
2023-01-26T01:52:12.953Z,102459.03
2023-01-26T01:54:45.301Z,102445.97
2023-01-26T01:57:19.832Z,102461.00
2023-01-26T01:59:55.525Z,102453.63
2023-01-26T02:02:25.021Z,102453.84
2023-01-26T02:04:57.784Z,102446.25
2023-01-26T02:07:27.536Z,102439.38
2023-01-26T02:10:14.577Z,102439.47
2023-01-26T02:12:46.817Z,102434.22
2023-01-26T02:15:15.871Z,102432.41
2023-01-26T02:17:45.060Z,102427.69
2023-01-26T02:20:25.064Z,102417.97
2023-01-26T02:23:05.258Z,102425.56
2023-01-26T02:25:42.699Z,102426.28
2023-01-26T02:28:13.085Z,102430.34
2023-01-26T02:30:41.210Z,102417.19
2023-01-26T02:33:15.359Z,102422.78
2023-01-26T02:35:44.463Z,102419.69
2023-01-26T02:38:14.035Z,102425.88
2023-01-26T02:40:51.820Z,102425.56
2023-01-26T02:43:21.455Z,102418.28
2023-01-26T02:45:49.894Z,102423.97
2023-01-26T02:48:38.038Z,102421.94
2023-01-26T02:51:06.503Z,102417.13
2023-01-26T02:53:35.469Z,102429.28
2023-01-26T02:56:02.633Z,102425.97
2023-01-26T02:58:32.094Z,102430.25
2023-01-26T03:01:00.541Z,102420.94
2023-01-26T03:03:41.585Z,102412.94
2023-01-26T03:06:13.608Z,102418.31
2023-01-26T03:08:42.171Z,102423.78
2023-01-26T03:11:11.019Z,102416.09
2023-01-26T03:13:40.255Z,102425.97
2023-01-26T03:16:11.826Z,102421.88
2023-01-26T03:18:57.287Z,102410.88
2023-01-26T03:21:42.782Z,102416.78
2023-01-26T03:24:40.569Z,102416.34
2023-01-26T03:27:29.577Z,102410.72
2023-01-26T03:30:06.300Z,102404.63
2023-01-26T03:32:34.820Z,102406.22
2023-01-26T03:35:07.181Z,102405.28
2023-01-26T03:37:37.232Z,102415.56
2023-01-26T03:40:32.963Z,102415.16
2023-01-26T03:43:26.150Z,102418.25
2023-01-26T03:46:13.531Z,102417.31
2023-01-26T03:48:59.203Z,102419.75
2023-01-26T03:51:44.797Z,102419.84
2023-01-26T03:54:30.499Z,102416.44
2023-01-26T03:56:59.082Z,102408.97
2023-01-26T03:59:39.087Z,102410.78
2023-01-26T04:02:37.280Z,102410.16
2023-01-26T04:05:24.993Z,102412.69
2023-01-26T04:08:20.649Z,102405.22
2023-01-26T04:10:49.063Z,102410.50
2023-01-26T04:13:34.372Z,102404.28
2023-01-26T04:16:26.734Z,102406.50
2023-01-26T04:19:13.935Z,102408.63
2023-01-26T04:21:42.247Z,102402.44
2023-01-26T04:24:22.686Z,102401.38
2023-01-26T04:26:55.579Z,102399.56
2023-01-26T04:29:27.753Z,102393.50
2023-01-26T04:31:56.553Z,102395.72
2023-01-26T04:34:26.440Z,102395.56
2023-01-26T04:36:54.824Z,102392.88
2023-01-26T04:39:25.837Z,102390.56
2023-01-26T04:41:57.025Z,102391.56
2023-01-26T04:44:26.362Z,102386.66
2023-01-26T04:46:54.485Z,102390.28
2023-01-26T04:49:23.406Z,102386.44
2023-01-26T04:51:52.919Z,102381.44
2023-01-26T04:54:21.146Z,102385.03
2023-01-26T04:56:49.286Z,102382.78
2023-01-26T04:59:17.295Z,102385.03
2023-01-26T05:01:45.504Z,102389.25
2023-01-26T05:04:13.874Z,102384.19
2023-01-26T05:06:45.248Z,102394.63
2023-01-26T05:09:14.665Z,102390.81
2023-01-26T05:11:44.854Z,102384.66
2023-01-26T05:14:31.193Z,102389.75
2023-01-26T05:17:05.186Z,102387.94
2023-01-26T05:20:02.718Z,102383.41
2023-01-26T05:22:33.884Z,102380.44
2023-01-26T05:25:26.900Z,102378.44
2023-01-26T05:28:03.567Z,102384.34
2023-01-26T05:30:32.080Z,102387.41
2023-01-26T05:33:03.463Z,102383.94
2023-01-26T05:35:32.661Z,102383.19
2023-01-26T05:38:01.203Z,102387.97
2023-01-26T05:40:33.439Z,102384.75
2023-01-26T05:43:01.707Z,102379.66
2023-01-26T05:45:59.699Z,102382.84
2023-01-26T05:48:27.749Z,102390.50
2023-01-26T05:50:57.765Z,102388.41
2023-01-26T05:53:26.983Z,102384.44
2023-01-26T05:55:57.283Z,102390.53
2023-01-26T05:58:27.886Z,102398.25
2023-01-26T06:00:57.131Z,102400.69
2023-01-26T06:03:30.736Z,102406.78
2023-01-26T06:05:58.883Z,102411.13
2023-01-26T06:08:39.272Z,102404.44
2023-01-26T06:11:27.124Z,102404.25
2023-01-26T06:14:21.079Z,102406.69
2023-01-26T06:16:49.500Z,102409.13
2023-01-26T06:19:17.686Z,102411.63
2023-01-26T06:21:50.932Z,102417.72
2023-01-26T06:24:19.043Z,102417.72
2023-01-26T06:26:49.848Z,102412.00
2023-01-26T06:29:19.241Z,102411.72
2023-01-26T06:31:47.197Z,102413.53
2023-01-26T06:34:15.350Z,102422.34
2023-01-26T06:36:44.421Z,102422.25
2023-01-26T06:39:19.683Z,102425.72
2023-01-26T06:41:50.010Z,102432.94
2023-01-26T06:44:18.437Z,102432.69
2023-01-26T06:46:47.122Z,102439.72
2023-01-26T06:49:16.657Z,102441.28
2023-01-26T06:51:48.828Z,102441.34
2023-01-26T06:54:18.056Z,102445.03
2023-01-26T06:57:04.556Z,102444.94
2023-01-26T07:00:06.388Z,102437.88
2023-01-26T07:02:57.376Z,102444.94
2023-01-26T07:05:25.587Z,102454.13
2023-01-26T07:07:54.075Z,102452.09
2023-01-26T07:10:23.185Z,102456.53
2023-01-26T07:12:53.355Z,102464.66
2023-01-26T07:15:21.998Z,102469.06
2023-01-26T07:17:50.493Z,102465.50
2023-01-26T07:20:19.375Z,102474.41
2023-01-26T07:22:47.729Z,102485.03
2023-01-26T07:25:15.899Z,102473.31
2023-01-26T07:27:43.893Z,102482.19
2023-01-26T07:30:15.512Z,102489.28
2023-01-26T07:32:43.712Z,102490.91
2023-01-26T07:35:11.977Z,102489.09
2023-01-26T07:37:40.301Z,102483.75
2023-01-26T07:40:10.671Z,102498.28
2023-01-26T07:42:38.967Z,102499.91
2023-01-26T07:45:21.908Z,102494.69
2023-01-26T07:47:50.447Z,102499.22
2023-01-26T07:50:21.187Z,102499.09
2023-01-26T07:52:49.774Z,102508.09
2023-01-26T07:55:20.450Z,102512.75
2023-01-26T07:57:49.409Z,102501.94
2023-01-26T08:00:21.467Z,102498.34
2023-01-26T08:02:51.180Z,102505.50
2023-01-26T08:05:19.300Z,102500.97
2023-01-26T08:07:47.411Z,102507.13
2023-01-26T08:10:15.832Z,102510.81
2023-01-26T08:12:43.844Z,102520.75
2023-01-26T08:15:14.121Z,102519.91
2023-01-26T08:17:43.759Z,102517.97
2023-01-26T08:20:14.454Z,102509.72
2023-01-26T08:22:42.670Z,102517.00
2023-01-26T08:25:11.925Z,102519.72
2023-01-26T08:27:40.224Z,102512.44
2023-01-26T08:30:11.339Z,102518.72
2023-01-26T08:32:39.960Z,102523.19
2023-01-26T08:35:10.628Z,102513.22
2023-01-26T08:37:38.851Z,102513.91
2023-01-26T08:40:09.310Z,102509.25
2023-01-26T08:42:37.500Z,102512.75
2023-01-26T08:45:06.225Z,102504.44
2023-01-26T08:47:34.461Z,102507.91
2023-01-26T08:50:02.616Z,102516.78
2023-01-26T08:52:32.887Z,102510.34
2023-01-26T08:55:01.178Z,102512.94
2023-01-26T08:57:29.546Z,102511.00
2023-01-26T08:59:57.849Z,102510.03
2023-01-26T09:02:26.252Z,102515.34
2023-01-26T09:04:54.341Z,102515.91
2023-01-26T09:07:22.461Z,102523.06
2023-01-26T09:09:51.962Z,102521.44
2023-01-26T09:12:19.868Z,102524.03
2023-01-26T09:14:47.894Z,102526.56
2023-01-26T09:17:16.076Z,102528.59
2023-01-26T09:19:44.996Z,102527.22
2023-01-26T09:22:13.111Z,102534.09
2023-01-26T09:24:41.222Z,102532.25
2023-01-26T09:27:10.547Z,102530.44
2023-01-26T09:29:38.370Z,102525.78
2023-01-26T09:32:06.943Z,102532.81
2023-01-26T09:34:35.764Z,102536.19
2023-01-26T09:37:04.137Z,102532.34
2023-01-26T09:39:32.107Z,102537.47
2023-01-26T09:42:13.480Z,102547.41
2023-01-26T09:44:49.506Z,102544.38
2023-01-26T09:47:27.135Z,102545.06
2023-01-26T09:50:00.930Z,102548.66
2023-01-26T09:52:34.383Z,102541.31
2023-01-26T09:55:06.254Z,102549.59
2023-01-26T09:57:39.306Z,102542.16
2023-01-26T10:00:19.232Z,102548.16
2023-01-26T10:02:58.032Z,102557.72
2023-01-26T10:05:33.908Z,102541.06
2023-01-26T10:08:13.784Z,102545.50
2023-01-26T10:10:46.962Z,102548.00
2023-01-26T10:13:17.729Z,102547.72
2023-01-26T10:15:52.788Z,102549.47
2023-01-26T10:18:25.133Z,102541.34
2023-01-26T10:20:57.072Z,102537.22
2023-01-26T10:23:29.056Z,102539.19
2023-01-26T10:26:05.958Z,102537.13
2023-01-26T10:28:36.720Z,102533.91
2023-01-26T10:31:13.568Z,102539.22
2023-01-26T10:33:49.866Z,102522.78
2023-01-26T10:36:18.147Z,102524.31
2023-01-26T10:38:47.102Z,102526.94
2023-01-26T10:41:27.500Z,102530.97
2023-01-26T10:43:57.893Z,102531.81
2023-01-26T10:46:33.336Z,102537.59
2023-01-26T10:49:04.452Z,102540.88
2023-01-26T10:51:34.494Z,102536.13
2023-01-26T10:54:20.356Z,102547.97
2023-01-26T10:56:52.037Z,102548.69
2023-01-26T10:59:30.837Z,102536.97
2023-01-26T11:02:03.069Z,102536.00
2023-01-26T11:04:32.019Z,102519.94
2023-01-26T11:07:26.452Z,102527.56
2023-01-26T11:09:54.970Z,102526.63
2023-01-26T11:12:26.607Z,102532.78
2023-01-26T11:15:04.223Z,102528.97
2023-01-26T11:17:39.461Z,102520.63
2023-01-26T11:20:27.928Z,102532.56
2023-01-26T11:23:05.790Z,102524.78
2023-01-26T11:25:41.904Z,102521.41
2023-01-26T11:28:25.763Z,102512.84
2023-01-26T11:31:01.739Z,102514.06
2023-01-26T11:33:39.033Z,102515.31
2023-01-26T11:36:17.096Z,102512.31
2023-01-26T11:38:51.689Z,102502.84
2023-01-26T11:41:38.300Z,102517.50
2023-01-26T11:44:35.435Z,102521.97
2023-01-26T11:47:16.014Z,102512.97
2023-01-26T11:50:03.778Z,102506.44
2023-01-26T11:52:43.220Z,102513.03
2023-01-26T11:55:29.913Z,102510.69
2023-01-26T11:58:15.230Z,102510.56
2023-01-26T12:00:49.467Z,102505.25
2023-01-26T12:03:26.306Z,102501.97
2023-01-26T12:06:00.369Z,102508.19
2023-01-26T12:08:38.305Z,102497.56
2023-01-26T12:11:25.770Z,102497.13
2023-01-26T12:14:13.893Z,102490.16
2023-01-26T12:16:52.485Z,102486.81
2023-01-26T12:19:37.814Z,102480.19
2023-01-26T12:22:16.018Z,102481.28
2023-01-26T12:25:16.164Z,102481.06
2023-01-26T12:27:45.620Z,102478.88
2023-01-26T12:30:28.554Z,102474.41
2023-01-26T12:32:57.713Z,102477.69
2023-01-26T12:35:40.362Z,102471.03
2023-01-26T12:38:18.449Z,102473.31
2023-01-26T12:40:58.902Z,102465.41
2023-01-26T12:43:46.113Z,102461.63
2023-01-26T12:46:15.816Z,102459.56
2023-01-26T12:48:48.493Z,102446.31
2023-01-26T12:51:24.259Z,102454.25
2023-01-26T12:53:59.728Z,102449.25
2023-01-26T12:56:34.176Z,102444.25
2023-01-26T12:59:14.818Z,102457.28
2023-01-26T13:02:10.276Z,102458.91
2023-01-26T13:04:38.620Z,102456.19
2023-01-26T13:07:29.039Z,102449.66
2023-01-26T13:10:23.473Z,102435.13
2023-01-26T13:12:54.600Z,102443.50
2023-01-26T13:15:26.373Z,102444.78
2023-01-26T13:17:57.388Z,102451.44
2023-01-26T13:20:46.240Z,102443.91
2023-01-26T13:23:40.657Z,102432.63
2023-01-26T13:26:50.769Z,102436.66
2023-01-26T13:29:35.642Z,102426.22
2023-01-26T13:32:37.259Z,102426.59
2023-01-26T13:35:14.934Z,102430.91
2023-01-26T13:37:51.126Z,102425.50
2023-01-26T13:40:24.847Z,102428.53
2023-01-26T13:43:01.626Z,102434.16
2023-01-26T13:45:36.722Z,102438.59
2023-01-26T13:48:12.658Z,102431.38
2023-01-26T13:50:42.343Z,102433.72
2023-01-26T13:53:33.920Z,102432.19
2023-01-26T13:56:05.314Z,102435.03
2023-01-26T13:58:34.754Z,102447.63
2023-01-26T14:01:08.301Z,102442.53
2023-01-26T14:03:36.703Z,102433.75
2023-01-26T14:06:10.878Z,102431.91
2023-01-26T14:08:40.964Z,102433.53
2023-01-26T14:11:19.328Z,102445.34
2023-01-26T14:13:51.571Z,102448.16
2023-01-26T14:16:27.755Z,102438.69
2023-01-26T14:19:07.380Z,102441.31
2023-01-26T14:21:47.513Z,102435.16
2023-01-26T14:24:15.990Z,102436.44
2023-01-26T14:26:44.594Z,102436.56
2023-01-26T14:29:14.357Z,102427.97
2023-01-26T14:31:44.611Z,102429.59
2023-01-26T14:34:12.566Z,102430.03
2023-01-26T14:36:40.654Z,102429.72
2023-01-26T14:39:18.340Z,102431.63
2023-01-26T14:41:47.575Z,102425.25
2023-01-26T14:44:16.062Z,102427.00
2023-01-26T14:46:57.727Z,102428.53
2023-01-26T14:49:42.820Z,102431.38
2023-01-26T14:52:22.427Z,102435.03
2023-01-26T14:54:51.523Z,102424.28
2023-01-26T14:57:23.807Z,102429.41
2023-01-26T14:59:53.811Z,102423.75
2023-01-26T15:02:26.045Z,102427.78
2023-01-26T15:04:58.635Z,102426.56
2023-01-26T15:07:40.002Z,102425.28
2023-01-26T15:10:33.970Z,102425.06
2023-01-26T15:13:07.006Z,102434.63
2023-01-26T15:15:38.426Z,102429.63
2023-01-26T15:18:19.363Z,102436.56
2023-01-26T15:21:00.212Z,102433.00
2023-01-26T15:23:31.180Z,102436.13
2023-01-26T15:26:07.529Z,102435.59
2023-01-26T15:28:36.594Z,102441.88
2023-01-26T15:31:05.896Z,102449.47
2023-01-26T15:33:58.887Z,102451.41
2023-01-26T15:36:33.316Z,102450.91
2023-01-26T15:39:05.973Z,102454.56
2023-01-26T15:41:33.966Z,102451.66
2023-01-26T15:44:02.101Z,102451.75
2023-01-26T15:46:30.780Z,102453.16
2023-01-26T15:49:00.118Z,102464.84
2023-01-26T15:51:28.176Z,102462.28
2023-01-26T15:53:56.676Z,102466.69
2023-01-26T15:56:25.596Z,102465.72
2023-01-26T15:58:54.111Z,102464.97
2023-01-26T16:01:23.805Z,102461.72
2023-01-26T16:03:52.478Z,102462.28
2023-01-26T16:06:24.965Z,102465.63
2023-01-26T16:08:53.871Z,102471.06
2023-01-26T16:11:24.282Z,102467.78
2023-01-26T16:14:02.925Z,102472.56
2023-01-26T16:16:33.465Z,102471.69
2023-01-26T16:19:01.584Z,102474.41
2023-01-26T16:21:35.069Z,102475.47
2023-01-26T16:24:04.836Z,102479.19
2023-01-26T16:26:34.077Z,102482.88
2023-01-26T16:29:02.257Z,102483.75
2023-01-26T16:31:33.416Z,102473.84
2023-01-26T16:34:02.299Z,102475.47
2023-01-26T16:36:31.956Z,102485.38
2023-01-26T16:39:00.391Z,102487.63
2023-01-26T16:41:30.672Z,102484.91
2023-01-26T16:44:00.737Z,102484.91
2023-01-26T16:46:30.964Z,102489.75
2023-01-26T16:48:59.935Z,102500.38
2023-01-26T16:51:32.153Z,102496.72
2023-01-26T16:54:00.571Z,102492.03
2023-01-26T16:56:29.421Z,102495.63
2023-01-26T16:58:57.525Z,102499.22
2023-01-26T17:01:28.286Z,102500.84
2023-01-26T17:03:57.059Z,102497.25
2023-01-26T17:06:25.632Z,102498.84
2023-01-26T17:08:55.120Z,102499.94
2023-01-26T17:11:27.818Z,102499.88
2023-01-26T17:13:57.130Z,102496.56
2023-01-26T17:16:27.038Z,102487.72
2023-01-26T17:18:55.043Z,102489.22
2023-01-26T17:21:23.755Z,102493.63
2023-01-26T17:23:53.190Z,102495.38
2023-01-26T17:26:23.780Z,102490.25
2023-01-26T17:28:55.632Z,102486.50
2023-01-26T17:31:25.451Z,102486.38
2023-01-26T17:33:53.736Z,102490.25
2023-01-26T17:36:22.418Z,102495.81
2023-01-26T17:38:51.144Z,102483.88
2023-01-26T17:41:19.190Z,102486.38
2023-01-26T17:43:49.144Z,102495.19
2023-01-26T17:46:19.060Z,102496.94
2023-01-26T17:48:47.907Z,102500.53
2023-01-26T17:51:18.262Z,102500.63
2023-01-26T17:53:49.584Z,102503.44
2023-01-26T17:56:19.812Z,102506.59
2023-01-26T17:58:51.601Z,102508.28
2023-01-26T18:01:20.781Z,102501.69
2023-01-26T18:03:49.507Z,102503.00
2023-01-26T18:06:17.766Z,102508.50
2023-01-26T18:08:46.199Z,102503.28
2023-01-26T18:11:16.804Z,102515.97
2023-01-26T18:13:45.566Z,102515.41
2023-01-26T18:16:17.540Z,102530.88
2023-01-26T18:18:46.181Z,102519.00
2023-01-26T18:21:16.938Z,102524.41
2023-01-26T18:23:47.254Z,102537.09
2023-01-26T18:26:17.083Z,102533.03
2023-01-26T18:28:46.738Z,102532.91
2023-01-26T18:31:18.574Z,102531.28
2023-01-26T18:33:47.077Z,102532.91
2023-01-26T18:36:17.490Z,102530.63
2023-01-26T18:38:50.547Z,102539.13
2023-01-26T18:41:19.234Z,102535.25
2023-01-26T18:43:48.775Z,102532.53
2023-01-26T18:46:19.830Z,102534.38
2023-01-26T18:48:48.275Z,102527.13
2023-01-26T18:51:18.390Z,102531.00
2023-01-26T18:53:46.628Z,102524.91
2023-01-26T18:56:17.746Z,102534.41
2023-01-26T18:58:46.221Z,102531.78
2023-01-26T19:01:18.788Z,102539.25
2023-01-26T19:03:54.089Z,102544.50
2023-01-26T19:06:23.793Z,102542.28
2023-01-26T19:08:58.487Z,102544.66
2023-01-26T19:11:28.606Z,102550.94
2023-01-26T19:13:56.720Z,102548.25
2023-01-26T19:16:25.097Z,102546.41
2023-01-26T19:18:55.612Z,102545.66
2023-01-26T19:21:25.343Z,102543.91
2023-01-26T19:23:55.624Z,102546.59
2023-01-26T19:26:26.329Z,102551.34
2023-01-26T19:28:55.011Z,102555.13
2023-01-26T19:31:24.566Z,102551.66
2023-01-26T19:33:55.400Z,102549.13
2023-01-26T19:36:24.587Z,102549.34
2023-01-26T19:38:52.916Z,102548.28
2023-01-26T19:41:22.777Z,102554.00
2023-01-26T19:43:51.328Z,102557.66
2023-01-26T19:46:20.871Z,102558.44
2023-01-26T19:48:48.895Z,102556.59
2023-01-26T19:51:19.802Z,102553.03
2023-01-26T19:53:50.022Z,102553.88
2023-01-26T19:56:21.125Z,102554.00
2023-01-26T19:58:51.200Z,102562.50
2023-01-26T20:01:19.825Z,102556.78
2023-01-26T20:03:51.604Z,102554.94
2023-01-26T20:06:23.454Z,102553.59
2023-01-26T20:08:52.280Z,102555.16
2023-01-26T20:11:25.122Z,102558.81
2023-01-26T20:13:55.841Z,102566.84
2023-01-26T20:16:28.304Z,102559.50
2023-01-26T20:18:57.268Z,102557.66
2023-01-26T20:21:27.464Z,102561.03
2023-01-26T20:23:56.264Z,102560.84
2023-01-26T20:26:26.970Z,102562.59
2023-01-26T20:28:58.144Z,102565.28
2023-01-26T20:31:27.663Z,102565.38
2023-01-26T20:33:56.300Z,102561.91
2023-01-26T20:36:28.276Z,102569.63
2023-01-26T20:38:57.346Z,102581.16
2023-01-26T20:41:27.620Z,102581.94
2023-01-26T20:44:00.385Z,102575.84
2023-01-26T20:46:29.844Z,102585.00
2023-01-26T20:48:59.431Z,102576.31
2023-01-26T20:51:31.304Z,102584.81
2023-01-26T20:53:59.519Z,102581.06
2023-01-26T20:56:27.844Z,102580.19
2023-01-26T20:58:57.700Z,102586.47
2023-01-26T21:01:28.201Z,102590.06
2023-01-26T21:03:56.571Z,102588.78
2023-01-26T21:06:26.197Z,102590.13
2023-01-26T21:08:58.252Z,102591.28
2023-01-26T21:11:27.705Z,102585.88
2023-01-26T21:13:57.074Z,102585.59
2023-01-26T21:16:26.470Z,102585.59
2023-01-26T21:18:54.987Z,102590.13
2023-01-26T21:21:23.803Z,102591.69
2023-01-26T21:23:52.824Z,102592.38
2023-01-26T21:26:23.767Z,102593.91
2023-01-26T21:28:52.656Z,102604.75
2023-01-26T21:31:22.093Z,102603.59
2023-01-26T21:33:51.998Z,102606.66
2023-01-26T21:36:22.002Z,102604.53
2023-01-26T21:38:52.156Z,102601.91
2023-01-26T21:41:40.440Z,102601.44
2023-01-26T21:44:11.669Z,102607.41
2023-01-26T21:46:40.952Z,102608.28
2023-01-26T21:49:09.427Z,102605.28
2023-01-26T21:51:55.424Z,102607.59
2023-01-26T21:54:23.669Z,102605.69
2023-01-26T21:56:53.174Z,102608.41
2023-01-26T21:59:20.153Z,102609.16
2023-01-26T22:01:49.620Z,102612.53
2023-01-26T22:04:19.574Z,102609.75
2023-01-26T22:06:47.755Z,102607.06
2023-01-26T22:09:17.957Z,102617.00
2023-01-26T22:11:46.144Z,102622.72
2023-01-26T22:14:20.743Z,102621.75
2023-01-26T22:16:52.686Z,102616.06
2023-01-26T22:19:22.633Z,102624.06
2023-01-26T22:21:51.021Z,102622.72
2023-01-26T22:24:19.082Z,102630.66
2023-01-26T22:26:47.539Z,102632.41
2023-01-26T22:29:16.881Z,102643.03
2023-01-26T22:31:44.790Z,102642.34
2023-01-26T22:34:13.392Z,102636.44
2023-01-26T22:36:41.421Z,102645.72
2023-01-26T22:39:10.201Z,102647.22
2023-01-26T22:41:38.366Z,102640.31
2023-01-26T22:44:06.489Z,102642.34
2023-01-26T22:46:36.827Z,102650.59
2023-01-26T22:49:05.982Z,102643.81
2023-01-26T22:51:37.100Z,102657.75
2023-01-26T22:54:06.510Z,102665.28
2023-01-26T22:56:34.604Z,102659.38
2023-01-26T22:59:02.895Z,102671.47
2023-01-26T23:01:33.237Z,102668.09
2023-01-26T23:04:03.316Z,102669.13
2023-01-26T23:06:31.384Z,102672.34
2023-01-26T23:09:01.134Z,102675.34
2023-01-26T23:11:30.167Z,102677.47
2023-01-26T23:14:00.432Z,102677.38
2023-01-26T23:16:29.184Z,102682.22
2023-01-26T23:18:59.805Z,102678.34
2023-01-26T23:21:30.809Z,102689.47
2023-01-26T23:23:59.316Z,102687.53
2023-01-26T23:26:27.837Z,102682.13
2023-01-26T23:28:55.771Z,102682.00
2023-01-26T23:31:23.884Z,102678.91
2023-01-26T23:33:52.300Z,102683.06
2023-01-26T23:36:20.601Z,102677.47
2023-01-26T23:38:50.871Z,102679.00
2023-01-26T23:41:19.517Z,102677.56
2023-01-26T23:43:47.581Z,102671.16
2023-01-26T23:46:15.999Z,102674.28
2023-01-26T23:48:44.056Z,102670.41
2023-01-26T23:51:13.508Z,102681.53
2023-01-26T23:53:42.018Z,102673.00
2023-01-26T23:56:14.636Z,102675.16
2023-01-26T23:58:42.900Z,102679.00
